createdAt,value
2023-02-10T00:01:47.300Z,22.20
2023-02-10T00:04:19.536Z,19.70
2023-02-10T00:06:51.580Z,20.70
2023-02-10T00:09:31.551Z,19.80
2023-02-10T00:12:03.658Z,18.80
2023-02-10T00:14:35.809Z,20.98
2023-02-10T00:17:07.825Z,21.50
2023-02-10T00:19:40.017Z,18.55
2023-02-10T00:22:12.041Z,22.27
2023-02-10T00:24:44.024Z,19.65
2023-02-10T00:27:16.012Z,20.08
2023-02-10T00:29:52.844Z,20.55
2023-02-10T00:32:24.910Z,22.08
2023-02-10T00:35:15.323Z,22.73
2023-02-10T00:37:50.461Z,20.65
2023-02-10T00:40:22.796Z,18.70
2023-02-10T00:42:54.761Z,18.80
2023-02-10T00:45:26.761Z,18.17
2023-02-10T00:47:58.995Z,21.67
2023-02-10T00:50:30.957Z,19.08
2023-02-10T00:53:03.057Z,20.00
2023-02-10T00:55:35.246Z,20.30
2023-02-10T00:58:07.255Z,20.85
2023-02-10T01:00:42.383Z,21.05
2023-02-10T01:03:14.981Z,22.10
2023-02-10T01:05:47.460Z,18.77
2023-02-10T01:08:20.243Z,18.20
2023-02-10T01:11:00.687Z,18.08
2023-02-10T01:13:35.808Z,20.75
2023-02-10T01:16:12.738Z,22.15
2023-02-10T01:18:46.451Z,21.70
2023-02-10T01:21:20.881Z,19.77
2023-02-10T01:23:52.941Z,18.52
2023-02-10T01:26:25.127Z,20.30
2023-02-10T01:28:57.233Z,20.90
2023-02-10T01:31:29.622Z,18.85
2023-02-10T01:34:02.574Z,20.88
2023-02-10T01:36:34.585Z,20.90
2023-02-10T01:39:06.743Z,20.70
2023-02-10T01:41:41.028Z,20.10
2023-02-10T01:44:22.218Z,21.45
2023-02-10T01:47:14.620Z,19.65
2023-02-10T01:49:49.246Z,19.58
2023-02-10T01:52:24.176Z,19.30
2023-02-10T01:55:02.887Z,19.40
2023-02-10T01:57:40.754Z,17.92
2023-02-10T02:00:15.718Z,18.02
2023-02-10T02:02:48.998Z,19.92
2023-02-10T02:05:23.367Z,18.95
2023-02-10T02:08:14.118Z,18.73
2023-02-10T02:11:08.413Z,18.15
2023-02-10T02:14:24.095Z,16.25
2023-02-10T02:17:12.682Z,17.38
2023-02-10T02:20:28.950Z,17.98
2023-02-10T02:23:42.808Z,20.08
2023-02-10T02:26:46.977Z,19.33
2023-02-10T02:34:01.432Z,18.23
2023-02-10T02:36:52.535Z,16.80
2023-02-10T02:39:29.411Z,19.15
2023-02-10T02:42:16.440Z,18.60
2023-02-10T02:45:16.227Z,18.00
2023-02-10T02:48:10.984Z,18.38
2023-02-10T02:51:15.936Z,19.40
2023-02-10T02:54:14.936Z,18.27
2023-02-10T02:57:05.051Z,17.13
2023-02-10T03:00:05.444Z,19.52
2023-02-10T03:02:42.327Z,18.38
2023-02-10T03:05:30.070Z,18.58
2023-02-10T03:08:03.483Z,19.20
2023-02-10T03:10:35.482Z,19.83
2023-02-10T03:13:07.544Z,19.35
2023-02-10T03:15:39.488Z,19.40
2023-02-10T03:18:11.551Z,18.65
2023-02-10T03:20:44.961Z,17.15
2023-02-10T03:23:21.203Z,18.13
2023-02-10T03:25:53.164Z,18.23
2023-02-10T03:28:25.239Z,19.30
2023-02-10T03:30:58.236Z,18.20
2023-02-10T03:33:35.079Z,19.52
2023-02-10T03:36:07.448Z,18.65
2023-02-10T03:38:39.622Z,18.27
2023-02-10T03:41:12.559Z,18.90
2023-02-10T03:43:45.373Z,18.80
2023-02-10T03:46:18.562Z,20.55
2023-02-10T03:48:50.669Z,17.60
2023-02-10T03:51:22.813Z,20.67
2023-02-10T03:53:54.877Z,16.25
2023-02-10T03:56:27.943Z,18.60
2023-02-10T03:59:03.804Z,24.48
2023-02-10T04:01:36.744Z,20.20
2023-02-10T04:04:08.820Z,18.92
2023-02-10T04:06:40.807Z,19.00
2023-02-10T04:09:12.845Z,19.20
2023-02-10T04:11:44.819Z,19.73
2023-02-10T04:14:16.995Z,19.83
2023-02-10T04:16:49.152Z,19.98
2023-02-10T04:19:21.461Z,19.80
2023-02-10T04:21:53.545Z,16.92
2023-02-10T04:24:25.606Z,19.20
2023-02-10T04:26:57.690Z,18.00
2023-02-10T04:29:29.833Z,18.50
2023-02-10T04:32:02.149Z,19.70
2023-02-10T04:34:34.884Z,20.73
2023-02-10T04:37:07.058Z,20.33
2023-02-10T04:39:39.064Z,21.23
2023-02-10T04:42:11.115Z,23.67
2023-02-10T04:44:43.137Z,20.27
2023-02-10T04:47:15.121Z,21.30
2023-02-10T04:49:47.096Z,19.13
2023-02-10T04:52:19.235Z,20.42
2023-02-10T04:54:51.534Z,20.60
2023-02-10T04:57:23.536Z,20.95
2023-02-10T04:59:55.494Z,21.63
2023-02-10T05:02:27.576Z,22.95
2023-02-10T05:05:08.138Z,20.65
2023-02-10T05:07:41.714Z,18.95
2023-02-10T05:10:13.778Z,19.95
2023-02-10T05:12:45.846Z,18.80
2023-02-10T05:15:18.412Z,22.50
2023-02-10T05:17:50.403Z,20.73
2023-02-10T05:20:22.695Z,21.52
2023-02-10T05:22:54.694Z,21.85
2023-02-10T05:25:27.131Z,23.75
2023-02-10T05:27:59.461Z,21.85
2023-02-10T05:30:31.389Z,19.83
2023-02-10T05:33:03.489Z,19.90
2023-02-10T05:35:35.732Z,21.50
2023-02-10T05:38:14.052Z,20.95
2023-02-10T05:40:47.304Z,19.95
2023-02-10T05:43:20.390Z,20.80
2023-02-10T05:45:52.812Z,21.88
2023-02-10T05:48:25.472Z,20.17
2023-02-10T05:50:58.601Z,21.10
2023-02-10T05:53:30.855Z,21.15
2023-02-10T05:56:02.792Z,20.95
2023-02-10T05:58:35.251Z,19.38
2023-02-10T06:01:08.956Z,21.88
2023-02-10T06:03:41.236Z,22.02
2023-02-10T06:06:13.484Z,21.48
2023-02-10T06:08:45.614Z,21.80
2023-02-10T06:11:17.911Z,22.38
2023-02-10T06:13:50.229Z,20.40
2023-02-10T06:16:22.537Z,25.00
2023-02-10T06:18:56.117Z,22.95
2023-02-10T06:21:28.236Z,20.80
2023-02-10T06:24:00.333Z,23.00
2023-02-10T06:26:32.419Z,21.00
2023-02-10T06:29:04.596Z,21.67
2023-02-10T06:31:36.861Z,21.88
2023-02-10T06:34:09.268Z,22.13
2023-02-10T06:36:41.382Z,21.52
2023-02-10T06:39:13.505Z,23.13
2023-02-10T06:41:45.627Z,22.45
2023-02-10T06:44:17.801Z,22.35
2023-02-10T06:46:50.990Z,21.70
2023-02-10T06:49:23.046Z,23.00
2023-02-10T06:51:56.663Z,23.90
2023-02-10T06:54:28.928Z,22.95
2023-02-10T06:57:01.361Z,23.98
2023-02-10T06:59:34.129Z,22.00
2023-02-10T07:02:06.749Z,24.27
2023-02-10T07:04:49.070Z,23.52
2023-02-10T07:07:21.176Z,23.35
2023-02-10T07:09:54.243Z,22.75
2023-02-10T07:12:26.374Z,24.00
2023-02-10T07:14:58.375Z,23.27
2023-02-10T07:17:30.376Z,21.88
2023-02-10T07:20:03.240Z,24.15
2023-02-10T07:22:36.064Z,23.55
2023-02-10T07:25:09.281Z,24.92
2023-02-10T07:27:42.780Z,24.67
2023-02-10T07:30:15.622Z,21.58
2023-02-10T07:32:47.994Z,22.33
2023-02-10T07:35:23.198Z,22.63
2023-02-10T07:37:55.994Z,23.63
2023-02-10T07:40:31.157Z,23.17
2023-02-10T07:43:09.769Z,23.60
2023-02-10T07:45:42.221Z,23.52
2023-02-10T07:48:14.710Z,27.23
2023-02-10T07:50:48.211Z,23.05
2023-02-10T07:53:22.136Z,24.00
2023-02-10T07:55:54.511Z,25.13
2023-02-10T07:58:30.969Z,23.42
2023-02-10T08:01:12.185Z,24.05
2023-02-10T08:03:44.358Z,24.38
2023-02-10T08:06:21.949Z,24.80
2023-02-10T08:08:56.207Z,25.35
2023-02-10T08:11:28.678Z,25.88
2023-02-10T08:14:03.372Z,25.88
2023-02-10T08:16:35.897Z,23.23
2023-02-10T08:19:08.232Z,27.38
2023-02-10T08:21:42.154Z,22.38
2023-02-10T08:24:16.598Z,22.52
2023-02-10T08:26:48.861Z,24.02
2023-02-10T08:29:21.204Z,26.13
2023-02-10T08:31:54.252Z,24.15
2023-02-10T08:34:27.165Z,24.85
2023-02-10T08:36:59.744Z,25.42
2023-02-10T08:39:32.072Z,23.60
2023-02-10T08:42:04.431Z,26.42
2023-02-10T08:44:37.338Z,25.92
2023-02-10T08:47:14.750Z,25.92
2023-02-10T08:49:48.807Z,24.45
2023-02-10T08:52:24.564Z,26.80
2023-02-10T08:54:57.924Z,26.92
2023-02-10T08:57:33.201Z,28.05
2023-02-10T09:00:07.427Z,27.15
2023-02-10T09:02:40.639Z,26.58
2023-02-10T09:05:13.166Z,28.90
2023-02-10T09:07:47.942Z,27.08
2023-02-10T09:10:20.500Z,23.23
2023-02-10T09:12:55.526Z,29.38
2023-02-10T09:15:28.324Z,28.10
2023-02-10T09:18:00.964Z,28.80
2023-02-10T09:20:33.508Z,30.10
2023-02-10T09:23:07.205Z,25.67
2023-02-10T09:25:40.017Z,28.30
2023-02-10T09:28:12.420Z,27.45
2023-02-10T09:30:45.661Z,29.23
2023-02-10T09:33:18.838Z,28.63
2023-02-10T09:35:52.709Z,29.30
2023-02-10T09:38:25.803Z,31.55
2023-02-10T09:41:27.764Z,30.30
2023-02-10T09:44:34.096Z,27.25
2023-02-10T09:47:13.580Z,30.83
2023-02-10T09:50:27.257Z,27.42
2023-02-10T09:53:30.654Z,27.45
2023-02-10T09:56:07.107Z,28.23
2023-02-10T09:58:51.299Z,28.50
2023-02-10T10:01:28.559Z,29.23
2023-02-10T10:04:17.291Z,27.95
2023-02-10T10:06:57.253Z,29.30
2023-02-10T10:10:03.180Z,27.65
2023-02-10T10:12:56.470Z,27.58
2023-02-10T10:15:38.044Z,28.15
2023-02-10T10:18:56.364Z,25.60
2023-02-10T10:21:47.983Z,25.65
2023-02-10T10:25:05.315Z,25.75
2023-02-10T10:28:15.519Z,26.42
2023-02-10T10:31:00.649Z,24.25
2023-02-10T10:34:13.365Z,26.63
2023-02-10T10:36:54.806Z,24.85
2023-02-10T10:39:38.258Z,26.42
2023-02-10T10:42:43.087Z,27.15
2023-02-10T10:45:28.379Z,25.60
2023-02-10T10:48:09.369Z,23.80
2023-02-10T10:50:59.745Z,23.13
2023-02-10T10:53:41.122Z,21.48
2023-02-10T10:56:45.538Z,22.05
2023-02-10T10:59:47.319Z,22.83
2023-02-10T11:02:25.753Z,24.88
2023-02-10T11:05:15.457Z,26.42
2023-02-10T11:07:51.424Z,22.70
2023-02-10T11:10:32.048Z,22.90
2023-02-10T11:13:30.623Z,23.92
2023-02-10T11:16:16.609Z,22.83
2023-02-10T11:18:59.912Z,23.48
2023-02-10T11:21:38.296Z,19.50
2023-02-10T11:24:21.954Z,21.65
2023-02-10T11:27:13.434Z,20.08
2023-02-10T11:29:55.835Z,21.55
2023-02-10T11:32:33.409Z,20.77
2023-02-10T11:35:15.990Z,20.45
2023-02-10T11:37:58.352Z,16.95
2023-02-10T11:40:54.747Z,16.63
2023-02-10T11:43:47.081Z,17.13
2023-02-10T11:46:28.414Z,15.95
2023-02-10T11:49:08.564Z,19.40
2023-02-10T11:51:57.107Z,21.05
2023-02-10T11:54:31.718Z,20.50
2023-02-10T11:57:52.914Z,20.92
2023-02-10T12:00:49.650Z,19.60
2023-02-10T12:03:58.041Z,19.60
2023-02-10T12:07:22.402Z,20.00
2023-02-10T12:10:32.510Z,18.80
2023-02-10T12:13:33.344Z,20.67
2023-02-10T12:16:43.987Z,18.98
2023-02-10T12:19:52.811Z,19.23
2023-02-10T12:23:06.240Z,19.77
2023-02-10T12:26:07.321Z,19.10
2023-02-10T12:29:19.900Z,18.73
2023-02-10T12:32:25.922Z,20.90
2023-02-10T12:35:45.941Z,17.05
2023-02-10T12:38:36.328Z,18.23
2023-02-10T12:41:54.479Z,18.40
2023-02-10T12:44:58.795Z,18.48
2023-02-10T12:47:43.564Z,17.85
2023-02-10T12:50:41.236Z,18.23
2023-02-10T12:53:39.981Z,16.48
2023-02-10T12:56:42.016Z,17.40
2023-02-10T12:59:36.529Z,17.25
2023-02-10T13:02:37.719Z,17.40
2023-02-10T13:05:28.745Z,17.05
2023-02-10T13:08:18.219Z,18.00
2023-02-10T13:11:03.676Z,18.30
2023-02-10T13:13:56.485Z,17.27
2023-02-10T13:16:35.066Z,17.80
2023-02-10T13:19:34.982Z,16.83
2023-02-10T13:22:41.969Z,17.52
2023-02-10T13:25:47.073Z,18.38
2023-02-10T13:28:49.421Z,16.35
2023-02-10T13:31:44.094Z,17.05
2023-02-10T13:34:41.915Z,17.58
2023-02-10T13:37:28.568Z,15.60
2023-02-10T13:40:45.245Z,17.40
2023-02-10T13:43:34.029Z,15.95
2023-02-10T13:46:07.906Z,17.60
2023-02-10T13:48:55.659Z,16.33
2023-02-10T13:51:36.674Z,17.85
2023-02-10T13:54:27.412Z,17.67
2023-02-10T13:57:02.759Z,18.70
2023-02-10T13:59:42.632Z,18.92
2023-02-10T14:02:23.517Z,17.30
2023-02-10T14:04:58.199Z,16.63
2023-02-10T14:07:35.750Z,14.20
2023-02-10T14:10:31.332Z,13.90
2023-02-10T14:13:27.319Z,14.90
2023-02-10T14:16:29.795Z,16.60
2023-02-10T14:19:29.000Z,17.08
2023-02-10T14:22:39.776Z,15.88
2023-02-10T14:25:15.192Z,16.92
2023-02-10T14:27:55.672Z,17.40
2023-02-10T14:30:45.633Z,18.48
2023-02-10T14:33:30.579Z,18.30
2023-02-10T14:36:17.917Z,19.05
2023-02-10T14:38:56.274Z,17.45
2023-02-10T14:41:34.219Z,17.50
2023-02-10T14:44:15.269Z,19.08
2023-02-10T14:47:15.542Z,17.85
2023-02-10T14:49:54.811Z,18.02
2023-02-10T14:52:37.495Z,17.65
2023-02-10T14:55:35.903Z,17.00
2023-02-10T14:58:10.363Z,17.10
2023-02-10T15:01:05.565Z,19.00
2023-02-10T15:03:49.552Z,16.48
2023-02-10T15:06:24.429Z,17.65
2023-02-10T15:09:07.795Z,15.30
2023-02-10T15:12:14.786Z,16.05
2023-02-10T15:15:18.064Z,14.52
2023-02-10T15:18:03.341Z,12.70
2023-02-10T15:20:39.221Z,15.75
2023-02-10T15:23:31.618Z,16.08
2023-02-10T15:26:30.444Z,16.25
2023-02-10T15:29:11.900Z,14.40
2023-02-10T15:31:59.902Z,14.65
2023-02-10T15:34:34.208Z,13.48
2023-02-10T15:37:18.432Z,14.18
2023-02-10T15:40:03.963Z,14.27
2023-02-10T15:42:59.901Z,14.07
2023-02-10T15:45:52.057Z,14.70
2023-02-10T15:48:44.291Z,13.38
2023-02-10T15:51:27.023Z,14.00
2023-02-10T15:54:00.964Z,15.00
2023-02-10T15:56:36.794Z,15.20
2023-02-10T15:59:18.347Z,17.13
2023-02-10T16:01:50.486Z,15.85
2023-02-10T16:04:22.825Z,13.95
2023-02-10T16:06:55.565Z,14.77
2023-02-10T16:09:31.036Z,15.55
2023-02-10T16:12:04.479Z,15.32
2023-02-10T16:14:36.938Z,14.70
2023-02-10T16:17:09.864Z,15.10
2023-02-10T16:19:48.808Z,14.68
2023-02-10T16:22:22.368Z,16.45
2023-02-10T16:24:56.036Z,16.00
2023-02-10T16:27:28.179Z,13.80
2023-02-10T16:30:00.351Z,14.88
2023-02-10T16:32:32.750Z,14.93
2023-02-10T16:35:05.134Z,14.52
2023-02-10T16:37:38.130Z,15.23
2023-02-10T16:40:39.740Z,14.25
2023-02-10T16:43:12.150Z,13.93
2023-02-10T16:45:44.374Z,15.23
2023-02-10T16:48:16.604Z,15.45
2023-02-10T16:50:49.729Z,15.55
2023-02-10T16:53:22.241Z,15.45
2023-02-10T16:55:55.454Z,14.60
2023-02-10T16:58:28.961Z,14.02
2023-02-10T17:01:01.661Z,14.40
2023-02-10T17:03:34.576Z,15.82
2023-02-10T17:06:08.129Z,15.63
2023-02-10T17:08:47.904Z,15.43
2023-02-10T17:11:20.257Z,14.38
2023-02-10T17:13:53.020Z,15.05
2023-02-10T17:16:38.436Z,14.35
2023-02-10T17:19:16.446Z,13.88
2023-02-10T17:21:51.059Z,15.05
2023-02-10T17:24:24.176Z,14.90
2023-02-10T17:26:56.976Z,15.38
2023-02-10T17:29:29.437Z,15.38
2023-02-10T17:32:01.986Z,12.98
2023-02-10T17:34:36.865Z,14.68
2023-02-10T17:37:10.430Z,14.82
2023-02-10T17:39:43.742Z,14.90
2023-02-10T17:42:19.434Z,15.57
2023-02-10T17:44:53.058Z,16.02
2023-02-10T17:47:25.228Z,15.95
2023-02-10T17:49:57.829Z,14.55
2023-02-10T17:52:30.089Z,15.13
2023-02-10T17:55:15.721Z,15.50
2023-02-10T17:57:52.834Z,16.10
2023-02-10T18:00:25.154Z,15.60
2023-02-10T18:02:57.369Z,15.98
2023-02-10T18:05:29.602Z,15.30
2023-02-10T18:08:02.052Z,17.30
2023-02-10T18:10:36.574Z,15.95
2023-02-10T18:13:11.101Z,17.02
2023-02-10T18:15:43.845Z,15.48
2023-02-10T18:18:18.863Z,17.13
2023-02-10T18:20:52.125Z,17.08
2023-02-10T18:23:24.755Z,15.93
2023-02-10T18:25:58.142Z,15.95
2023-02-10T18:28:31.811Z,15.65
2023-02-10T18:31:04.805Z,15.35
2023-02-10T18:33:38.418Z,14.98
2023-02-10T18:36:12.673Z,17.55
2023-02-10T18:38:48.308Z,18.42
2023-02-10T18:41:22.005Z,17.60
2023-02-10T18:43:56.793Z,18.48
2023-02-10T18:46:30.185Z,17.55
2023-02-10T18:49:03.173Z,16.80
2023-02-10T18:51:36.014Z,18.15
2023-02-10T18:54:08.881Z,18.95
2023-02-10T18:56:41.849Z,18.45
2023-02-10T18:59:15.712Z,17.77
2023-02-10T19:01:48.210Z,19.80
2023-02-10T19:04:23.226Z,18.45
2023-02-10T19:06:56.591Z,19.35
2023-02-10T19:09:38.208Z,19.10
2023-02-10T19:12:11.757Z,19.27
2023-02-10T19:14:45.019Z,17.73
2023-02-10T19:17:17.906Z,17.65
2023-02-10T19:19:51.353Z,21.17
2023-02-10T19:22:24.314Z,19.67
2023-02-10T19:25:01.295Z,19.50
2023-02-10T19:27:35.632Z,19.02
2023-02-10T19:30:09.681Z,19.27
2023-02-10T19:32:43.171Z,18.30
2023-02-10T19:35:16.008Z,19.75
2023-02-10T19:37:48.817Z,18.05
2023-02-10T19:40:22.129Z,18.63
2023-02-10T19:42:56.504Z,19.15
2023-02-10T19:45:29.223Z,20.00
2023-02-10T19:48:05.061Z,20.60
2023-02-10T19:50:38.141Z,21.42
2023-02-10T19:53:15.484Z,23.13
2023-02-10T19:55:49.379Z,21.00
2023-02-10T19:58:22.966Z,20.85
2023-02-10T20:01:01.457Z,20.65
2023-02-10T20:03:38.812Z,21.38
2023-02-10T20:06:14.336Z,20.50
2023-02-10T20:09:07.032Z,19.92
2023-02-10T20:11:41.644Z,20.33
2023-02-10T20:14:15.366Z,18.58
2023-02-10T20:16:53.344Z,19.60
2023-02-10T20:19:27.518Z,21.05
2023-02-10T20:22:01.016Z,19.38
2023-02-10T20:24:34.110Z,18.00
2023-02-10T20:27:07.561Z,18.50
2023-02-10T20:29:40.366Z,17.45
2023-02-10T20:32:13.285Z,17.63
2023-02-10T20:34:46.383Z,17.75
2023-02-10T20:37:18.920Z,16.58
2023-02-10T20:39:52.327Z,17.00
2023-02-10T20:42:25.445Z,16.85
2023-02-10T20:45:01.162Z,17.17
2023-02-10T20:47:37.501Z,17.90
2023-02-10T20:50:10.269Z,16.88
2023-02-10T20:52:45.420Z,17.20
2023-02-10T20:55:21.728Z,17.40
2023-02-10T20:57:55.149Z,15.82
2023-02-10T21:00:29.074Z,17.35
2023-02-10T21:03:01.839Z,16.85
2023-02-10T21:05:35.660Z,18.33
2023-02-10T21:08:09.733Z,16.05
2023-02-10T21:10:43.664Z,17.95
2023-02-10T21:13:16.881Z,16.45
2023-02-10T21:15:53.033Z,16.90
2023-02-10T21:18:26.381Z,16.67
2023-02-10T21:21:01.387Z,18.23
2023-02-10T21:23:37.344Z,17.33
2023-02-10T21:26:11.141Z,19.23
2023-02-10T21:28:46.175Z,19.20
2023-02-10T21:31:23.389Z,18.83
2023-02-10T21:33:57.044Z,19.95
2023-02-10T21:36:31.653Z,19.13
2023-02-10T21:39:07.892Z,18.63
2023-02-10T21:41:46.785Z,19.13
2023-02-10T21:44:33.193Z,17.38
2023-02-10T21:47:07.670Z,18.20
2023-02-10T21:49:40.871Z,18.15
2023-02-10T21:52:14.839Z,18.02
2023-02-10T21:54:48.561Z,20.60
2023-02-10T21:57:21.283Z,20.75
2023-02-10T21:59:56.024Z,19.33
2023-02-10T22:02:29.187Z,19.20
2023-02-10T22:05:04.437Z,19.95
2023-02-10T22:07:39.213Z,23.58
2023-02-10T22:10:12.887Z,23.17
2023-02-10T22:12:46.150Z,27.02
2023-02-10T22:15:18.631Z,23.73
2023-02-10T22:17:51.685Z,26.17
2023-02-10T22:20:23.977Z,23.88
2023-02-10T22:22:56.798Z,22.48
2023-02-10T22:25:29.331Z,24.75
2023-02-10T22:28:01.952Z,24.48
2023-02-10T22:30:36.044Z,27.15
2023-02-10T22:33:13.188Z,29.15
2023-02-10T22:35:45.704Z,29.42
2023-02-10T22:38:18.931Z,25.30
2023-02-10T22:40:52.014Z,23.85
2023-02-10T22:43:25.558Z,20.92
2023-02-10T22:45:58.616Z,21.42
2023-02-10T22:48:31.614Z,21.75
2023-02-10T22:51:10.130Z,19.75
2023-02-10T22:54:02.661Z,18.40
2023-02-10T22:56:39.317Z,20.15
2023-02-10T22:59:13.250Z,20.25
2023-02-10T23:01:46.661Z,18.80
2023-02-10T23:04:20.649Z,19.52
2023-02-10T23:06:52.848Z,18.55
2023-02-10T23:09:25.096Z,17.38
2023-02-10T23:11:57.665Z,18.60
2023-02-10T23:14:30.361Z,18.23
2023-02-10T23:17:02.761Z,18.13
2023-02-10T23:19:35.646Z,17.38
2023-02-10T23:22:09.640Z,16.05
2023-02-10T23:24:41.631Z,17.60
2023-02-10T23:27:13.857Z,16.45
2023-02-10T23:29:46.192Z,18.45
2023-02-10T23:32:19.694Z,17.25
2023-02-10T23:34:53.650Z,17.08
2023-02-10T23:37:25.895Z,16.55
2023-02-10T23:39:58.335Z,16.45
2023-02-10T23:42:30.408Z,16.17
2023-02-10T23:45:02.520Z,18.13
2023-02-10T23:47:34.951Z,18.05
2023-02-10T23:50:07.983Z,18.75
2023-02-10T23:52:40.710Z,18.35
2023-02-10T23:55:13.095Z,19.52
2023-02-10T23:57:45.491Z,16.90
